createdAt,value
2017-09-06T00:00:17.767Z,20.82
2017-09-06T00:02:46.820Z,20.85
2017-09-06T00:05:15.876Z,20.83
2017-09-06T00:07:45.503Z,20.82
2017-09-06T00:10:14.612Z,20.88
2017-09-06T00:12:45.407Z,20.86
2017-09-06T00:15:14.489Z,20.89
2017-09-06T00:17:43.549Z,20.88
2017-09-06T00:20:12.588Z,20.91
2017-09-06T00:22:41.644Z,20.88
2017-09-06T00:25:10.693Z,20.86
2017-09-06T00:27:39.749Z,20.86
2017-09-06T00:30:08.804Z,20.87
2017-09-06T00:32:37.892Z,20.84
2017-09-06T00:35:06.937Z,20.80
2017-09-06T00:37:36.040Z,20.80
2017-09-06T00:40:05.072Z,20.81
2017-09-06T00:42:34.132Z,20.78
2017-09-06T00:45:03.265Z,20.77
2017-09-06T00:47:32.323Z,20.73
2017-09-06T00:50:01.359Z,20.76
2017-09-06T00:52:30.420Z,20.76
2017-09-06T00:54:59.468Z,20.79
2017-09-06T00:57:28.540Z,20.76
2017-09-06T00:59:57.627Z,20.78
2017-09-06T01:02:26.681Z,20.79
2017-09-06T01:04:55.744Z,20.78
2017-09-06T01:07:24.804Z,20.79
2017-09-06T01:09:53.842Z,20.82
2017-09-06T01:12:22.892Z,20.81
2017-09-06T01:14:51.980Z,20.84
2017-09-06T01:17:21.057Z,20.83
2017-09-06T01:19:50.114Z,20.81
2017-09-06T01:22:19.183Z,20.76
2017-09-06T01:24:48.231Z,20.68
2017-09-06T01:27:17.288Z,20.62
2017-09-06T01:29:46.341Z,20.65
2017-09-06T01:32:15.410Z,20.67
2017-09-06T01:34:44.499Z,20.71
2017-09-06T01:37:13.532Z,20.70
2017-09-06T01:39:42.620Z,20.73
2017-09-06T01:42:11.670Z,20.74
2017-09-06T01:44:40.721Z,20.73
2017-09-06T01:47:09.777Z,20.74
2017-09-06T01:49:38.855Z,20.73
2017-09-06T01:52:07.903Z,20.74
2017-09-06T01:54:37.016Z,20.68
2017-09-06T01:57:06.100Z,20.65
2017-09-06T01:59:35.150Z,20.63
2017-09-06T02:02:04.257Z,20.56
2017-09-06T02:04:33.319Z,20.56
2017-09-06T02:07:02.390Z,20.53
2017-09-06T02:09:31.428Z,20.57
2017-09-06T02:12:00.472Z,20.57
2017-09-06T02:14:29.536Z,20.57
2017-09-06T02:16:58.592Z,20.53
2017-09-06T02:19:27.635Z,20.50
2017-09-06T02:21:56.680Z,20.44
2017-09-06T02:24:25.747Z,20.45
2017-09-06T02:26:54.815Z,20.45
2017-09-06T02:29:23.890Z,20.44
2017-09-06T02:31:52.964Z,20.44
2017-09-06T02:34:22.047Z,20.39
2017-09-06T02:36:51.129Z,20.35
2017-09-06T02:39:20.189Z,20.27
2017-09-06T02:41:49.252Z,20.24
2017-09-06T02:44:18.685Z,20.20
2017-09-06T02:46:47.728Z,20.18
2017-09-06T02:49:16.751Z,20.17
2017-09-06T02:51:45.836Z,20.16
2017-09-06T02:54:14.875Z,20.15
2017-09-06T02:56:43.939Z,20.15
2017-09-06T02:59:13.033Z,20.16
2017-09-06T03:01:42.103Z,20.13
2017-09-06T03:04:11.159Z,20.12
2017-09-06T03:06:40.239Z,20.14
2017-09-06T03:09:09.267Z,20.13
2017-09-06T03:11:38.353Z,20.13
2017-09-06T03:14:07.437Z,20.12
2017-09-06T03:16:36.498Z,20.10
2017-09-06T03:19:05.769Z,20.10
2017-09-06T03:21:35.738Z,20.10
2017-09-06T03:24:04.830Z,20.09
2017-09-06T03:26:33.849Z,20.08
2017-09-06T03:29:02.931Z,20.07
2017-09-06T03:31:31.960Z,20.04
2017-09-06T03:34:01.268Z,20.01
2017-09-06T03:36:30.330Z,19.99
2017-09-06T03:38:59.371Z,19.97
2017-09-06T03:41:28.426Z,19.97
2017-09-06T03:43:57.477Z,19.94
2017-09-06T03:46:26.521Z,19.93
2017-09-06T03:48:55.739Z,19.93
2017-09-06T03:51:24.811Z,19.95
2017-09-06T03:53:53.897Z,19.97
2017-09-06T03:56:22.980Z,20.00
2017-09-06T03:58:52.063Z,20.01
2017-09-06T04:01:21.115Z,20.01
2017-09-06T04:03:50.540Z,20.01
2017-09-06T04:06:19.604Z,20.00
2017-09-06T04:08:48.667Z,20.01
2017-09-06T04:11:17.737Z,20.02
2017-09-06T04:13:46.807Z,20.05
2017-09-06T04:16:15.873Z,20.06
2017-09-06T04:18:44.935Z,20.07
2017-09-06T04:21:13.979Z,20.05
2017-09-06T04:23:43.028Z,20.06
2017-09-06T04:26:12.085Z,20.05
2017-09-06T04:28:41.169Z,20.04
2017-09-06T04:31:10.237Z,20.05
2017-09-06T04:33:40.053Z,20.05
2017-09-06T04:36:09.228Z,20.02
2017-09-06T04:38:38.280Z,20.02
2017-09-06T04:41:07.355Z,19.95
2017-09-06T04:43:36.393Z,19.90
2017-09-06T04:46:05.691Z,19.86
2017-09-06T04:48:34.744Z,19.83
2017-09-06T04:51:03.797Z,19.80
2017-09-06T04:53:32.843Z,19.82
2017-09-06T04:56:01.909Z,19.83
2017-09-06T04:58:30.960Z,19.84
2017-09-06T05:01:00.005Z,19.81
2017-09-06T05:03:29.102Z,19.80
2017-09-06T05:05:58.383Z,19.79
2017-09-06T05:08:27.450Z,19.76
2017-09-06T05:10:56.521Z,19.72
2017-09-06T05:13:25.571Z,19.74
2017-09-06T05:15:54.640Z,19.76
2017-09-06T05:18:23.717Z,19.75
2017-09-06T05:20:52.799Z,19.74
2017-09-06T05:23:21.859Z,19.75
2017-09-06T05:25:50.887Z,19.69
2017-09-06T05:28:19.941Z,19.64
2017-09-06T05:30:49.013Z,19.58
2017-09-06T05:33:18.064Z,19.52
2017-09-06T05:35:48.172Z,19.49
2017-09-06T05:38:17.236Z,19.36
2017-09-06T05:40:46.307Z,19.30
2017-09-06T05:43:15.322Z,19.24
2017-09-06T05:45:44.372Z,19.14
2017-09-06T05:48:14.212Z,19.13
2017-09-06T05:50:43.273Z,19.08
2017-09-06T05:53:12.368Z,18.97
2017-09-06T05:55:41.628Z,18.91
2017-09-06T05:58:10.716Z,18.84
2017-09-06T06:00:39.813Z,18.83
2017-09-06T06:03:08.917Z,18.76
2017-09-06T06:05:37.975Z,18.74
2017-09-06T06:08:07.054Z,18.70
2017-09-06T06:10:36.096Z,18.72
2017-09-06T06:13:05.201Z,18.72
2017-09-06T06:15:34.287Z,18.67
2017-09-06T06:18:03.678Z,18.69
2017-09-06T06:20:32.827Z,18.61
2017-09-06T06:23:01.908Z,18.67
2017-09-06T06:25:31.013Z,18.61
2017-09-06T06:28:00.045Z,18.60
2017-09-06T06:30:29.096Z,18.59
2017-09-06T06:32:58.143Z,18.58
2017-09-06T06:35:27.211Z,18.60
2017-09-06T06:37:56.275Z,18.60
2017-09-06T06:40:25.307Z,18.56
2017-09-06T06:42:56.228Z,18.47
2017-09-06T06:45:25.231Z,18.47
2017-09-06T06:47:54.298Z,18.42
2017-09-06T06:50:24.421Z,18.38
2017-09-06T06:52:53.487Z,18.39
2017-09-06T06:55:23.325Z,18.45
2017-09-06T06:57:52.361Z,18.48
2017-09-06T07:00:21.442Z,18.47
2017-09-06T07:02:50.878Z,18.50
2017-09-06T07:05:19.936Z,18.53
2017-09-06T07:07:49.007Z,18.54
2017-09-06T07:10:19.146Z,18.55
2017-09-06T07:12:48.246Z,18.53
2017-09-06T07:15:17.560Z,18.58
2017-09-06T07:17:46.665Z,18.60
2017-09-06T07:20:15.841Z,18.64
2017-09-06T07:22:44.886Z,18.67
2017-09-06T07:25:14.295Z,18.69
2017-09-06T07:27:43.411Z,18.74
2017-09-06T07:30:12.688Z,18.83
2017-09-06T07:32:42.504Z,18.90
2017-09-06T07:35:11.585Z,18.94
2017-09-06T07:37:41.433Z,18.95
2017-09-06T07:40:10.541Z,18.94
2017-09-06T07:42:39.682Z,18.95
2017-09-06T07:45:08.737Z,18.94
2017-09-06T07:47:37.847Z,18.88
2017-09-06T07:50:06.888Z,18.78
2017-09-06T07:52:35.976Z,18.69
2017-09-06T07:55:05.014Z,18.58
2017-09-06T07:57:34.094Z,18.48
2017-09-06T08:00:03.131Z,18.36
2017-09-06T08:02:32.196Z,18.28
2017-09-06T08:05:01.257Z,18.15
2017-09-06T08:07:30.325Z,18.12
2017-09-06T08:09:59.728Z,18.12
2017-09-06T08:12:28.781Z,18.14
2017-09-06T08:14:57.833Z,18.14
2017-09-06T08:17:26.872Z,18.13
2017-09-06T08:19:55.966Z,18.06
2017-09-06T08:22:25.037Z,17.97
2017-09-06T08:24:54.085Z,17.88
2017-09-06T08:27:23.127Z,17.79
2017-09-06T08:29:52.215Z,17.76
2017-09-06T08:32:21.311Z,17.71
2017-09-06T08:34:50.345Z,17.68
2017-09-06T08:37:19.401Z,17.62
2017-09-06T08:39:49.223Z,17.59
2017-09-06T08:42:18.289Z,17.61
2017-09-06T08:44:47.443Z,17.55
2017-09-06T08:47:16.549Z,17.42
2017-09-06T08:49:45.584Z,17.36
2017-09-06T08:52:15.399Z,17.28
2017-09-06T08:54:45.248Z,17.28
2017-09-06T08:57:14.321Z,17.24
2017-09-06T08:59:43.381Z,17.18
2017-09-06T09:02:12.464Z,17.14
2017-09-06T09:04:41.545Z,17.17
2017-09-06T09:07:10.791Z,17.18
2017-09-06T09:09:39.858Z,17.14
2017-09-06T09:12:09.507Z,17.10
2017-09-06T09:14:38.569Z,17.03
2017-09-06T09:17:08.205Z,16.91
2017-09-06T09:19:37.276Z,16.89
2017-09-06T09:22:06.342Z,16.84
2017-09-06T09:24:35.397Z,16.77
2017-09-06T09:27:04.477Z,16.74
2017-09-06T09:29:33.535Z,16.75
2017-09-06T09:32:02.573Z,16.71
2017-09-06T09:34:32.403Z,16.66
2017-09-06T09:37:01.493Z,16.58
2017-09-06T09:39:30.535Z,16.54
2017-09-06T09:41:59.621Z,16.44
2017-09-06T09:44:28.674Z,16.41
2017-09-06T09:46:57.754Z,16.39
2017-09-06T09:49:26.834Z,16.42
2017-09-06T09:51:55.937Z,16.41
2017-09-06T09:54:25.032Z,16.39
2017-09-06T09:56:54.949Z,16.38
2017-09-06T09:59:24.013Z,16.37
2017-09-06T10:01:53.068Z,16.37
2017-09-06T10:04:22.927Z,16.34
2017-09-06T10:06:51.999Z,16.35
2017-09-06T10:09:21.086Z,16.37
2017-09-06T10:11:50.156Z,16.31
2017-09-06T10:14:20.241Z,16.31
2017-09-06T10:16:49.277Z,16.28
2017-09-06T10:19:18.357Z,16.24
2017-09-06T10:21:47.445Z,16.22
2017-09-06T10:24:16.496Z,16.20
2017-09-06T10:26:45.560Z,16.22
2017-09-06T10:29:14.655Z,16.24
2017-09-06T10:31:44.527Z,16.25
2017-09-06T10:34:13.574Z,16.27
2017-09-06T10:36:42.649Z,16.34
2017-09-06T10:39:11.729Z,16.44
2017-09-06T10:41:41.592Z,16.51
2017-09-06T10:44:10.637Z,16.56
2017-09-06T10:46:40.485Z,16.67
2017-09-06T10:49:09.659Z,16.71
2017-09-06T10:51:38.713Z,16.82
2017-09-06T10:54:07.807Z,17.06
2017-09-06T10:56:36.892Z,17.28
2017-09-06T10:59:05.995Z,17.46
2017-09-06T11:01:35.056Z,17.50
2017-09-06T11:04:04.171Z,17.50
2017-09-06T11:06:33.241Z,17.44
2017-09-06T11:09:02.287Z,17.40
2017-09-06T11:11:32.148Z,17.41
2017-09-06T11:14:01.637Z,17.40
2017-09-06T11:16:32.398Z,17.42
2017-09-06T11:19:01.441Z,17.49
2017-09-06T11:21:30.507Z,17.69
2017-09-06T11:23:59.757Z,17.83
2017-09-06T11:26:28.837Z,17.83
2017-09-06T11:28:58.064Z,17.70
2017-09-06T11:31:27.148Z,17.64
2017-09-06T11:33:56.217Z,17.57
2017-09-06T11:36:25.341Z,17.70
2017-09-06T11:38:54.380Z,17.88
2017-09-06T11:41:23.419Z,18.05
2017-09-06T11:43:52.528Z,18.24
2017-09-06T11:46:21.616Z,18.49
2017-09-06T11:48:50.706Z,18.72
2017-09-06T11:51:19.765Z,18.71
2017-09-06T11:53:48.863Z,18.74
2017-09-06T11:56:17.937Z,18.71
2017-09-06T11:58:46.990Z,18.74
2017-09-06T12:01:16.381Z,18.71
2017-09-06T12:03:45.463Z,18.72
2017-09-06T12:06:14.521Z,18.78
2017-09-06T12:08:43.635Z,18.81
2017-09-06T12:11:12.700Z,18.76
2017-09-06T12:13:41.763Z,18.80
2017-09-06T12:16:10.823Z,18.78
2017-09-06T12:18:39.965Z,18.74
2017-09-06T12:21:09.156Z,18.82
2017-09-06T12:23:38.231Z,18.95
2017-09-06T12:26:07.607Z,19.08
2017-09-06T12:28:36.787Z,19.06
2017-09-06T12:31:06.148Z,18.98
2017-09-06T12:33:35.240Z,19.03
2017-09-06T12:36:04.308Z,19.08
2017-09-06T12:38:33.399Z,19.13
2017-09-06T12:41:02.466Z,19.26
2017-09-06T12:43:31.516Z,19.39
2017-09-06T12:46:00.578Z,19.46
2017-09-06T12:48:29.656Z,19.50
2017-09-06T12:50:58.695Z,19.59
2017-09-06T12:53:27.758Z,19.68
2017-09-06T12:55:56.823Z,19.73
2017-09-06T12:58:25.898Z,19.75
2017-09-06T13:00:54.965Z,19.78
2017-09-06T13:03:24.121Z,19.81
2017-09-06T13:05:53.202Z,19.84
2017-09-06T13:08:22.263Z,19.75
2017-09-06T13:10:51.340Z,19.67
2017-09-06T13:13:20.404Z,19.56
2017-09-06T13:15:49.456Z,19.47
2017-09-06T13:18:18.551Z,19.44
2017-09-06T13:20:47.632Z,19.55
2017-09-06T13:23:16.699Z,19.61
2017-09-06T13:25:46.315Z,19.55
2017-09-06T13:28:15.659Z,19.56
2017-09-06T13:30:44.730Z,19.64
2017-09-06T13:33:14.608Z,19.69
2017-09-06T13:35:44.755Z,19.69
2017-09-06T13:38:13.841Z,19.75
2017-09-06T13:40:42.884Z,19.83
2017-09-06T13:43:12.875Z,19.83
2017-09-06T13:45:41.934Z,19.88
2017-09-06T13:48:11.037Z,19.99
2017-09-06T13:50:40.132Z,20.12
2017-09-06T13:53:09.209Z,20.26
2017-09-06T13:55:38.397Z,20.34
2017-09-06T13:58:07.463Z,20.35
2017-09-06T14:00:36.869Z,20.31
2017-09-06T14:03:06.309Z,20.25
2017-09-06T14:05:35.635Z,20.15
2017-09-06T14:08:04.979Z,20.08
2017-09-06T14:10:34.033Z,20.04
2017-09-06T14:13:03.347Z,20.08
2017-09-06T14:15:33.910Z,20.13
2017-09-06T14:18:06.040Z,20.18
2017-09-06T14:20:35.140Z,20.24
2017-09-06T14:23:04.230Z,20.16
2017-09-06T14:25:33.300Z,20.13
2017-09-06T14:28:02.339Z,19.99
2017-09-06T14:30:31.464Z,19.79
2017-09-06T14:33:01.285Z,19.66
2017-09-06T14:35:30.370Z,19.57
2017-09-06T14:37:59.438Z,19.44
2017-09-06T14:40:28.818Z,19.36
2017-09-06T14:42:57.959Z,19.33
2017-09-06T14:45:27.778Z,19.30
2017-09-06T14:47:57.190Z,19.21
2017-09-06T14:50:26.292Z,19.16
2017-09-06T14:52:55.373Z,19.13
2017-09-06T14:55:24.462Z,19.03
2017-09-06T14:57:53.757Z,18.94
2017-09-06T15:00:22.837Z,18.91
2017-09-06T15:02:51.881Z,18.92
2017-09-06T15:05:20.976Z,18.91
2017-09-06T15:07:50.004Z,18.85
2017-09-06T15:10:19.130Z,18.76
2017-09-06T15:12:48.188Z,18.71
2017-09-06T15:15:17.276Z,18.71
2017-09-06T15:17:46.378Z,18.74
2017-09-06T15:20:15.432Z,18.76
2017-09-06T15:22:46.482Z,18.71
2017-09-06T15:25:15.544Z,18.67
2017-09-06T15:27:44.947Z,18.57
2017-09-06T15:30:14.320Z,18.52
2017-09-06T15:32:43.388Z,18.43
2017-09-06T15:35:12.451Z,18.39
2017-09-06T15:37:41.600Z,18.44
2017-09-06T15:40:10.684Z,18.38
2017-09-06T15:42:39.768Z,18.36
2017-09-06T15:45:08.836Z,18.38
2017-09-06T15:47:37.909Z,18.38
2017-09-06T15:50:06.989Z,18.34
2017-09-06T15:52:36.051Z,18.32
2017-09-06T15:55:05.153Z,18.25
2017-09-06T15:57:34.225Z,18.25
2017-09-06T16:00:03.276Z,18.22
2017-09-06T16:02:32.800Z,18.23
2017-09-06T16:05:01.851Z,18.20
2017-09-06T16:07:30.955Z,18.16
2017-09-06T16:10:00.262Z,18.11
2017-09-06T16:12:29.354Z,18.13
2017-09-06T16:14:58.446Z,18.13
2017-09-06T16:17:28.254Z,18.13
2017-09-06T16:19:57.324Z,18.11
2017-09-06T16:22:26.377Z,18.05
2017-09-06T16:24:55.420Z,18.03
2017-09-06T16:27:24.525Z,18.05
2017-09-06T16:29:53.583Z,18.08
2017-09-06T16:32:22.656Z,18.08
2017-09-06T16:34:51.704Z,18.05
2017-09-06T16:37:20.806Z,18.08
2017-09-06T16:39:49.847Z,18.08
2017-09-06T16:42:18.924Z,18.03
2017-09-06T16:44:48.004Z,18.05
2017-09-06T16:47:17.117Z,18.03
2017-09-06T16:49:46.212Z,18.03
2017-09-06T16:52:15.313Z,17.96
2017-09-06T16:54:44.406Z,17.95
2017-09-06T16:57:13.647Z,17.87
2017-09-06T16:59:43.513Z,17.83
2017-09-06T17:02:12.568Z,17.86
2017-09-06T17:04:41.697Z,17.84
2017-09-06T17:07:10.776Z,17.71
2017-09-06T17:09:42.744Z,17.59
2017-09-06T17:12:12.086Z,17.52
2017-09-06T17:14:41.131Z,17.28
2017-09-06T17:17:11.014Z,17.03
2017-09-06T17:19:40.076Z,16.76
2017-09-06T17:22:09.160Z,16.66
2017-09-06T17:24:38.238Z,16.51
2017-09-06T17:27:08.453Z,16.31
2017-09-06T17:29:37.586Z,16.12
2017-09-06T17:32:06.739Z,16.07
2017-09-06T17:34:35.811Z,15.94
2017-09-06T17:37:05.623Z,15.89
2017-09-06T17:39:34.672Z,15.94
2017-09-06T17:42:04.239Z,15.99
2017-09-06T17:44:34.053Z,16.03
2017-09-06T17:47:03.160Z,16.10
2017-09-06T17:49:32.220Z,16.09
2017-09-06T17:52:01.305Z,16.12
2017-09-06T17:54:30.346Z,16.17
2017-09-06T17:56:59.436Z,16.15
2017-09-06T17:59:28.480Z,16.12
2017-09-06T18:01:57.528Z,16.01
2017-09-06T18:04:26.609Z,15.97
2017-09-06T18:06:56.252Z,15.89
2017-09-06T18:09:25.665Z,15.87
2017-09-06T18:11:55.325Z,15.87
2017-09-06T18:14:24.439Z,15.86
2017-09-06T18:16:53.517Z,15.81
2017-09-06T18:19:22.651Z,15.74
2017-09-06T18:21:51.761Z,15.73
2017-09-06T18:24:21.625Z,15.62
2017-09-06T18:26:50.724Z,15.66
2017-09-06T18:29:19.920Z,15.65
2017-09-06T18:31:49.022Z,15.63
2017-09-06T18:34:18.089Z,15.58
2017-09-06T18:36:47.951Z,15.69
2017-09-06T18:39:17.032Z,15.66
2017-09-06T18:41:46.092Z,15.75
2017-09-06T18:44:15.284Z,15.78
2017-09-06T18:46:44.320Z,15.70
2017-09-06T18:49:13.405Z,15.71
2017-09-06T18:51:42.442Z,15.75
2017-09-06T18:54:11.534Z,15.76
2017-09-06T18:56:40.604Z,15.81
2017-09-06T18:59:09.662Z,15.83
2017-09-06T19:01:38.766Z,15.75
2017-09-06T19:04:09.276Z,15.67
2017-09-06T19:06:38.365Z,15.72
2017-09-06T19:09:07.539Z,15.76
2017-09-06T19:11:36.586Z,15.83
2017-09-06T19:14:05.719Z,15.92
2017-09-06T19:16:34.754Z,15.92
2017-09-06T19:19:03.901Z,15.92
2017-09-06T19:21:32.934Z,15.99
2017-09-06T19:24:01.985Z,16.01
2017-09-06T19:26:31.067Z,16.09
2017-09-06T19:29:00.184Z,16.13
2017-09-06T19:31:29.254Z,16.17
2017-09-06T19:33:58.296Z,16.17
2017-09-06T19:36:27.401Z,16.12
2017-09-06T19:38:56.457Z,15.86
2017-09-06T19:41:25.517Z,15.68
2017-09-06T19:43:54.597Z,15.60
2017-09-06T19:46:23.670Z,15.49
2017-09-06T19:48:52.751Z,15.52
2017-09-06T19:51:21.815Z,15.49
2017-09-06T19:53:51.661Z,15.50
2017-09-06T19:56:20.732Z,15.37
2017-09-06T19:58:49.785Z,15.34
2017-09-06T20:01:18.832Z,15.30
2017-09-06T20:03:48.091Z,15.16
2017-09-06T20:06:17.383Z,15.05
2017-09-06T20:08:46.421Z,15.10
2017-09-06T20:11:15.504Z,15.12
2017-09-06T20:13:44.572Z,15.05
2017-09-06T20:16:14.246Z,14.93
2017-09-06T20:18:43.307Z,15.02
2017-09-06T20:21:12.378Z,15.04
2017-09-06T20:23:42.217Z,15.08
2017-09-06T20:26:11.327Z,15.12
2017-09-06T20:28:40.381Z,15.21
2017-09-06T20:31:09.702Z,15.23
2017-09-06T20:33:38.779Z,15.25
2017-09-06T20:36:07.848Z,15.28
2017-09-06T20:38:36.959Z,15.26
2017-09-06T20:41:06.819Z,15.27
2017-09-06T20:43:35.893Z,15.32
2017-09-06T20:46:04.990Z,15.32
2017-09-06T20:48:34.048Z,15.31
2017-09-06T20:51:03.152Z,15.23
2017-09-06T20:53:32.221Z,15.03
2017-09-06T20:56:01.303Z,14.94
2017-09-06T20:58:30.370Z,14.93
2017-09-06T21:00:59.431Z,14.84
2017-09-06T21:03:28.587Z,14.87
2017-09-06T21:05:57.644Z,14.80
2017-09-06T21:08:26.731Z,14.77
2017-09-06T21:10:55.931Z,14.71
2017-09-06T21:13:25.004Z,14.68
2017-09-06T21:15:54.055Z,14.61
2017-09-06T21:18:23.142Z,14.61
2017-09-06T21:20:52.219Z,14.57
2017-09-06T21:23:21.307Z,14.57
2017-09-06T21:25:50.351Z,14.57
2017-09-06T21:28:19.403Z,14.57
2017-09-06T21:30:48.486Z,14.54
2017-09-06T21:33:17.682Z,14.54
2017-09-06T21:35:46.782Z,14.56
2017-09-06T21:38:15.800Z,14.55
2017-09-06T21:40:44.884Z,14.58
2017-09-06T21:43:13.937Z,14.57
2017-09-06T21:45:43.005Z,14.62
2017-09-06T21:48:12.100Z,14.60
2017-09-06T21:50:41.171Z,14.62
2017-09-06T21:53:10.384Z,14.67
2017-09-06T21:55:39.423Z,14.68
2017-09-06T21:58:08.551Z,14.76
2017-09-06T22:00:37.620Z,14.81
2017-09-06T22:03:06.741Z,14.80
2017-09-06T22:05:35.841Z,14.78
2017-09-06T22:08:05.220Z,14.74
2017-09-06T22:10:34.275Z,14.76
2017-09-06T22:13:03.343Z,14.79
2017-09-06T22:15:32.434Z,14.83
2017-09-06T22:18:02.261Z,14.78
2017-09-06T22:20:31.361Z,14.82
2017-09-06T22:23:00.696Z,14.79
2017-09-06T22:25:29.761Z,14.79
2017-09-06T22:27:58.807Z,14.78
2017-09-06T22:30:27.885Z,14.79
2017-09-06T22:32:56.939Z,14.80
2017-09-06T22:35:26.029Z,14.79
2017-09-06T22:37:55.099Z,14.77
2017-09-06T22:40:24.137Z,14.76
2017-09-06T22:42:53.214Z,14.76
2017-09-06T22:45:22.276Z,14.66
2017-09-06T22:47:51.337Z,14.61
2017-09-06T22:50:20.445Z,14.57
2017-09-06T22:52:49.525Z,14.63
2017-09-06T22:55:18.588Z,14.63
2017-09-06T22:57:47.668Z,14.69
2017-09-06T23:00:16.728Z,14.72
2017-09-06T23:02:45.860Z,14.72
2017-09-06T23:05:15.075Z,14.71
2017-09-06T23:07:44.180Z,14.70
2017-09-06T23:10:13.252Z,14.67
2017-09-06T23:12:43.099Z,14.68
2017-09-06T23:15:12.207Z,14.61
2017-09-06T23:17:41.280Z,14.58
2017-09-06T23:20:10.348Z,14.60
2017-09-06T23:22:39.400Z,14.56
2017-09-06T23:25:08.713Z,14.56
2017-09-06T23:27:37.776Z,14.55
2017-09-06T23:30:06.849Z,14.55
2017-09-06T23:32:35.905Z,14.55
2017-09-06T23:35:05.002Z,14.47
2017-09-06T23:37:34.066Z,14.44
2017-09-06T23:40:03.108Z,14.46
2017-09-06T23:42:32.162Z,14.44
2017-09-06T23:45:01.246Z,14.42
2017-09-06T23:47:30.288Z,14.39
2017-09-06T23:49:59.356Z,14.43
2017-09-06T23:52:28.415Z,14.48
2017-09-06T23:54:57.465Z,14.46
2017-09-06T23:57:26.510Z,14.45
2017-09-06T23:59:55.589Z,14.46
